createdAt,value
2018-06-15T00:00:16.210Z,100372.63
2018-06-15T00:02:48.854Z,100369.57
2018-06-15T00:05:17.445Z,100379.98
2018-06-15T00:07:46.090Z,100379.04
2018-06-15T00:10:14.673Z,100387.02
2018-06-15T00:12:43.290Z,100394.26
2018-06-15T00:15:11.908Z,100393.75
2018-06-15T00:17:40.502Z,100394.72
2018-06-15T00:20:09.130Z,100392.17
2018-06-15T00:22:39.341Z,100398.36
2018-06-15T00:25:09.003Z,100403.28
2018-06-15T00:27:37.567Z,100400.97
2018-06-15T00:30:06.747Z,100408.48
2018-06-15T00:32:35.318Z,100414.62
2018-06-15T00:35:04.085Z,100409.30
2018-06-15T00:37:32.669Z,100413.91
2018-06-15T00:40:01.256Z,100418.12
2018-06-15T00:42:29.836Z,100417.49
2018-06-15T00:44:58.523Z,100423.90
2018-06-15T00:47:27.205Z,100434.15
2018-06-15T00:49:55.893Z,100431.36
2018-06-15T00:52:24.476Z,100437.70
2018-06-15T00:54:53.161Z,100438.33
2018-06-15T00:57:33.724Z,100440.84
2018-06-15T01:00:02.347Z,100445.30
2018-06-15T01:02:30.891Z,100444.18
2018-06-15T01:05:00.088Z,100448.39
2018-06-15T01:07:28.771Z,100444.42
2018-06-15T01:09:57.356Z,100449.02
2018-06-15T01:12:25.971Z,100450.17
2018-06-15T01:14:54.657Z,100457.87
2018-06-15T01:17:23.306Z,100461.22
2018-06-15T01:19:51.822Z,100465.52
2018-06-15T01:22:20.481Z,100470.34
2018-06-15T01:24:49.075Z,100466.92
2018-06-15T01:27:17.586Z,100469.58
2018-06-15T01:29:46.221Z,100475.69
2018-06-15T01:32:14.828Z,100465.89
2018-06-15T01:34:43.410Z,100467.80
2018-06-15T01:37:12.279Z,100478.48
2018-06-15T01:39:40.878Z,100475.08
2018-06-15T01:42:09.467Z,100489.68
2018-06-15T01:44:38.127Z,100482.50
2018-06-15T01:47:06.774Z,100485.77
2018-06-15T01:49:35.325Z,100486.55
2018-06-15T01:52:03.860Z,100486.19
2018-06-15T01:54:32.362Z,100491.31
2018-06-15T01:57:00.941Z,100487.33
2018-06-15T01:59:30.547Z,100496.68
2018-06-15T02:01:59.233Z,100489.68
2018-06-15T02:04:27.916Z,100500.66
2018-06-15T02:06:56.438Z,100498.77
2018-06-15T02:09:24.975Z,100494.98
2018-06-15T02:11:53.572Z,100502.95
2018-06-15T02:14:22.147Z,100504.85
2018-06-15T02:16:50.729Z,100508.83
2018-06-15T02:19:19.312Z,100512.30
2018-06-15T02:21:47.804Z,100498.58
2018-06-15T02:24:16.375Z,100515.16
2018-06-15T02:26:44.958Z,100514.77
2018-06-15T02:29:13.590Z,100513.83
2018-06-15T02:31:42.107Z,100528.84
2018-06-15T02:34:10.708Z,100524.86
2018-06-15T02:36:39.290Z,100519.77
2018-06-15T02:39:09.511Z,100520.88
2018-06-15T02:41:38.039Z,100515.39
2018-06-15T02:44:06.679Z,100527.33
2018-06-15T02:46:35.261Z,100520.80
2018-06-15T02:49:03.845Z,100530.17
2018-06-15T02:51:32.426Z,100527.02
2018-06-15T02:54:00.906Z,100535.84
2018-06-15T02:56:29.521Z,100538.50
2018-06-15T02:58:58.279Z,100540.19
2018-06-15T03:01:27.079Z,100545.49
2018-06-15T03:03:55.910Z,100548.15
2018-06-15T03:06:24.994Z,100544.16
2018-06-15T03:08:53.838Z,100550.44
2018-06-15T03:11:22.623Z,100548.55
2018-06-15T03:13:51.313Z,100552.63
2018-06-15T03:16:19.906Z,100554.98
2018-06-15T03:18:48.415Z,100562.37
2018-06-15T03:21:16.898Z,100563.14
2018-06-15T03:23:45.435Z,100562.94
2018-06-15T03:26:14.224Z,100568.77
2018-06-15T03:28:42.911Z,100570.48
2018-06-15T03:31:11.539Z,100578.45
2018-06-15T03:33:40.130Z,100575.59
2018-06-15T03:36:09.271Z,100583.72
2018-06-15T03:38:38.468Z,100589.18
2018-06-15T03:41:07.153Z,100588.22
2018-06-15T03:43:35.844Z,100591.99
2018-06-15T03:46:04.627Z,100603.53
2018-06-15T03:48:33.162Z,100597.44
2018-06-15T03:51:01.698Z,100599.78
2018-06-15T03:53:31.194Z,100605.15
2018-06-15T03:55:59.830Z,100603.20
2018-06-15T03:58:28.564Z,100605.06
2018-06-15T04:00:57.226Z,100606.34
2018-06-15T04:03:25.833Z,100605.34
2018-06-15T04:05:54.881Z,100609.12
2018-06-15T04:08:23.511Z,100607.94
2018-06-15T04:10:52.302Z,100613.51
2018-06-15T04:13:21.395Z,100615.48
2018-06-15T04:15:50.078Z,100619.08
2018-06-15T04:18:18.764Z,100615.63
2018-06-15T04:20:47.507Z,100614.48
2018-06-15T04:23:16.078Z,100614.27
2018-06-15T04:25:45.446Z,100623.14
2018-06-15T04:28:14.017Z,100615.27
2018-06-15T04:30:42.644Z,100617.64
2018-06-15T04:33:11.393Z,100615.06
2018-06-15T04:35:40.587Z,100613.41
2018-06-15T04:38:09.270Z,100609.98
2018-06-15T04:40:37.956Z,100617.66
2018-06-15T04:43:06.581Z,100619.22
2018-06-15T04:45:35.170Z,100624.40
2018-06-15T04:48:03.709Z,100626.16
2018-06-15T04:50:32.288Z,100630.20
2018-06-15T04:53:00.878Z,100626.19
2018-06-15T04:55:30.169Z,100629.28
2018-06-15T04:57:58.670Z,100619.27
2018-06-15T05:00:27.335Z,100625.98
2018-06-15T05:02:56.543Z,100630.56
2018-06-15T05:05:25.784Z,100631.02
2018-06-15T05:07:54.459Z,100630.27
2018-06-15T05:10:23.535Z,100637.09
2018-06-15T05:12:52.070Z,100633.50
2018-06-15T05:15:20.561Z,100636.30
2018-06-15T05:17:49.221Z,100639.36
2018-06-15T05:20:17.849Z,100644.45
2018-06-15T05:22:46.428Z,100646.29
2018-06-15T05:25:15.009Z,100646.17
2018-06-15T05:27:43.537Z,100642.42
2018-06-15T05:30:12.275Z,100644.17
2018-06-15T05:32:40.960Z,100640.17
2018-06-15T05:35:09.546Z,100640.87
2018-06-15T05:37:38.040Z,100645.27
2018-06-15T05:40:06.709Z,100639.78
2018-06-15T05:42:35.445Z,100646.36
2018-06-15T05:45:04.027Z,100657.16
2018-06-15T05:47:32.612Z,100647.69
2018-06-15T05:50:01.187Z,100648.75
2018-06-15T05:52:29.774Z,100650.08
2018-06-15T05:54:58.354Z,100650.57
2018-06-15T05:57:27.047Z,100656.77
2018-06-15T05:59:55.590Z,100660.05
2018-06-15T06:02:24.090Z,100657.50
2018-06-15T06:04:52.641Z,100662.85
2018-06-15T06:07:21.134Z,100671.45
2018-06-15T06:09:49.646Z,100676.69
2018-06-15T06:12:18.145Z,100677.91
2018-06-15T06:14:46.686Z,100673.38
2018-06-15T06:17:15.247Z,100681.70
2018-06-15T06:19:43.752Z,100687.02
2018-06-15T06:22:12.255Z,100691.73
2018-06-15T06:24:40.763Z,100693.20
2018-06-15T06:27:09.478Z,100703.94
2018-06-15T06:29:38.059Z,100695.68
2018-06-15T06:32:06.841Z,100693.74
2018-06-15T06:34:35.429Z,100703.30
2018-06-15T06:37:03.997Z,100694.91
2018-06-15T06:39:32.595Z,100644.50
2018-06-15T06:42:01.114Z,100714.47
2018-06-15T06:44:29.746Z,100708.78
2018-06-15T06:46:58.343Z,100717.63
2018-06-15T06:49:26.866Z,100717.02
2018-06-15T06:51:55.510Z,100722.38
2018-06-15T06:54:24.125Z,100720.80
2018-06-15T06:56:52.664Z,100730.75
2018-06-15T06:59:21.238Z,100737.30
2018-06-15T07:01:49.841Z,100736.01
2018-06-15T07:04:18.362Z,100740.66
2018-06-15T07:06:47.006Z,100751.38
2018-06-15T07:09:15.544Z,100748.95
2018-06-15T07:11:44.087Z,100754.83
2018-06-15T07:14:12.653Z,100755.87
2018-06-15T07:16:41.236Z,100763.67
2018-06-15T07:19:09.921Z,100765.94
2018-06-15T07:21:38.607Z,100770.09
2018-06-15T07:24:07.307Z,100774.31
2018-06-15T07:26:35.978Z,100770.89
2018-06-15T07:29:04.807Z,100778.97
2018-06-15T07:31:33.453Z,100794.01
2018-06-15T07:34:01.970Z,100789.35
2018-06-15T07:36:30.509Z,100798.44
2018-06-15T07:38:59.119Z,100798.08
2018-06-15T07:41:27.802Z,100793.21
2018-06-15T07:43:56.483Z,100800.96
2018-06-15T07:46:26.266Z,100798.54
2018-06-15T07:48:54.963Z,100800.90
2018-06-15T07:51:23.499Z,100799.75
2018-06-15T07:53:52.190Z,100794.02
2018-06-15T07:56:21.019Z,100793.53
2018-06-15T07:58:49.705Z,100796.91
2018-06-15T08:01:18.390Z,100805.63
2018-06-15T08:03:52.302Z,100808.13
2018-06-15T08:06:20.826Z,100822.64
2018-06-15T08:08:49.466Z,100827.81
2018-06-15T08:11:17.981Z,100832.20
2018-06-15T08:13:46.633Z,100827.11
2018-06-15T08:16:15.931Z,100757.59
2018-06-15T08:18:44.617Z,100837.78
2018-06-15T08:21:13.213Z,100832.95
2018-06-15T08:23:41.830Z,100836.80
2018-06-15T08:26:10.414Z,100839.34
2018-06-15T08:28:39.046Z,100853.81
2018-06-15T08:31:07.680Z,100862.62
2018-06-15T08:33:36.315Z,100858.20
2018-06-15T08:36:05.091Z,100856.22
2018-06-15T08:38:33.686Z,100859.98
2018-06-15T08:41:02.305Z,100853.11
2018-06-15T08:43:31.372Z,100866.41
2018-06-15T08:45:59.978Z,100856.66
2018-06-15T08:48:28.734Z,100870.91
2018-06-15T08:50:57.317Z,100866.14
2018-06-15T08:53:25.894Z,100879.02
2018-06-15T08:55:54.586Z,100882.38
2018-06-15T08:58:23.091Z,100882.75
2018-06-15T09:00:51.649Z,100879.54
2018-06-15T09:03:20.161Z,100880.34
2018-06-15T09:05:48.802Z,100887.20
2018-06-15T09:08:17.360Z,100886.12
2018-06-15T09:10:45.979Z,100880.95
2018-06-15T09:13:15.258Z,100888.19
2018-06-15T09:15:44.030Z,100886.77
2018-06-15T09:18:12.687Z,100897.22
2018-06-15T09:20:41.232Z,100901.00
2018-06-15T09:23:09.802Z,100896.17
2018-06-15T09:25:38.554Z,100888.91
2018-06-15T09:28:07.493Z,100895.97
2018-06-15T09:30:36.593Z,100892.75
2018-06-15T09:33:05.202Z,100898.27
2018-06-15T09:35:33.853Z,100893.83
2018-06-15T09:38:02.441Z,100898.99
2018-06-15T09:40:30.971Z,100899.79
2018-06-15T09:42:59.486Z,100904.95
2018-06-15T09:45:27.972Z,100908.20
2018-06-15T09:47:56.803Z,100910.45
2018-06-15T09:50:25.356Z,100903.09
2018-06-15T09:52:54.060Z,100914.81
2018-06-15T09:55:22.615Z,100907.78
2018-06-15T09:58:00.257Z,100914.09
2018-06-15T10:00:34.024Z,100905.09
2018-06-15T10:03:02.910Z,100902.20
2018-06-15T10:05:31.595Z,100914.00
2018-06-15T10:08:00.242Z,100911.64
2018-06-15T10:10:30.493Z,100921.24
2018-06-15T10:12:59.859Z,100915.63
2018-06-15T10:15:28.488Z,100923.44
2018-06-15T10:17:57.718Z,100926.05
2018-06-15T10:20:27.115Z,100920.86
2018-06-15T10:22:55.680Z,100928.91
2018-06-15T10:25:24.361Z,100929.30
2018-06-15T10:27:52.877Z,100927.02
2018-06-15T10:30:22.279Z,100927.26
2018-06-15T10:32:52.030Z,100934.01
2018-06-15T10:35:20.836Z,100937.34
2018-06-15T10:37:49.434Z,100944.40
2018-06-15T10:40:18.043Z,100949.75
2018-06-15T10:42:46.706Z,100948.48
2018-06-15T10:45:15.354Z,100948.48
2018-06-15T10:47:43.861Z,100949.94
2018-06-15T10:50:12.594Z,100714.56
2018-06-15T10:52:41.094Z,100952.63
2018-06-15T10:55:09.705Z,100958.70
2018-06-15T10:57:38.230Z,100960.94
2018-06-15T11:00:06.790Z,100958.89
2018-06-15T11:02:35.388Z,100961.06
2018-06-15T11:05:03.984Z,100961.91
2018-06-15T11:07:33.234Z,100972.84
2018-06-15T11:10:02.353Z,100966.93
2018-06-15T11:12:31.220Z,100965.66
2018-06-15T11:14:59.711Z,100956.20
2018-06-15T11:17:28.271Z,100966.94
2018-06-15T11:19:56.832Z,100968.87
2018-06-15T11:22:25.350Z,100959.00
2018-06-15T11:24:54.054Z,100967.39
2018-06-15T11:27:23.549Z,100969.55
2018-06-15T11:29:52.146Z,100973.72
2018-06-15T11:32:20.658Z,100970.66
2018-06-15T11:34:49.285Z,100974.66
2018-06-15T11:37:17.868Z,100960.25
2018-06-15T11:39:46.421Z,100960.23
2018-06-15T11:42:15.039Z,100962.43
2018-06-15T11:44:43.722Z,100962.90
2018-06-15T11:47:12.230Z,100964.53
2018-06-15T11:49:40.882Z,100946.13
2018-06-15T11:52:09.384Z,100964.79
2018-06-15T11:54:37.874Z,100959.50
2018-06-15T11:57:06.529Z,100966.23
2018-06-15T11:59:35.005Z,100975.70
2018-06-15T12:02:03.515Z,100970.76
2018-06-15T12:04:32.186Z,100972.02
2018-06-15T12:07:00.963Z,100974.13
2018-06-15T12:09:29.526Z,100979.95
2018-06-15T12:11:59.255Z,100985.98
2018-06-15T12:14:27.918Z,100982.93
2018-06-15T12:16:56.475Z,100993.11
2018-06-15T12:19:26.539Z,100984.02
2018-06-15T12:21:55.117Z,100984.14
2018-06-15T12:24:23.666Z,100986.14
2018-06-15T12:26:55.360Z,100974.81
2018-06-15T12:29:23.886Z,100972.74
2018-06-15T12:31:52.526Z,100973.73
2018-06-15T12:34:21.019Z,100983.55
2018-06-15T12:36:49.716Z,100986.52
2018-06-15T12:39:18.217Z,100986.00
2018-06-15T12:41:46.755Z,100985.29
2018-06-15T12:44:15.236Z,100989.09
2018-06-15T12:46:43.723Z,100998.58
2018-06-15T12:49:12.234Z,100995.92
2018-06-15T12:51:40.761Z,100993.49
2018-06-15T12:54:09.669Z,100996.42
2018-06-15T12:56:38.206Z,100997.39
2018-06-15T12:59:06.835Z,100999.61
2018-06-15T13:01:35.524Z,100995.36
2018-06-15T13:04:04.104Z,101003.02
2018-06-15T13:06:32.602Z,100990.83
2018-06-15T13:09:01.210Z,100991.25
2018-06-15T13:11:29.770Z,100992.83
2018-06-15T13:13:59.215Z,101000.05
2018-06-15T13:16:27.798Z,101000.13
2018-06-15T13:18:56.282Z,100998.12
2018-06-15T13:21:24.792Z,101003.09
2018-06-15T13:23:53.405Z,101001.06
2018-06-15T13:26:32.777Z,101009.73
2018-06-15T13:29:07.207Z,101008.45
2018-06-15T13:31:36.985Z,101003.95
2018-06-15T13:34:07.084Z,101013.83
2018-06-15T13:36:36.286Z,101017.48
2018-06-15T13:39:23.581Z,101014.45
2018-06-15T13:41:54.624Z,101022.37
2018-06-15T13:44:23.311Z,101008.98
2018-06-15T13:46:52.230Z,101011.02
2018-06-15T13:49:21.091Z,101018.67
2018-06-15T13:51:53.548Z,101015.48
2018-06-15T13:54:22.530Z,101020.31
2018-06-15T13:56:51.126Z,101026.52
2018-06-15T13:59:19.727Z,101015.86
2018-06-15T14:01:48.248Z,101019.25
2018-06-15T14:04:16.897Z,101017.07
2018-06-15T14:06:45.534Z,101025.71
2018-06-15T14:09:14.157Z,101018.45
2018-06-15T14:11:42.842Z,101012.45
2018-06-15T14:14:11.533Z,101011.00
2018-06-15T14:16:40.209Z,101014.97
2018-06-15T14:19:08.795Z,101018.27
2018-06-15T14:21:37.481Z,101020.55
2018-06-15T14:24:06.575Z,101025.77
2018-06-15T14:26:35.155Z,101029.17
2018-06-15T14:29:04.051Z,101018.77
2018-06-15T14:31:32.734Z,101012.05
2018-06-15T14:34:01.369Z,101029.05
2018-06-15T14:36:29.946Z,101032.56
2018-06-15T14:38:58.530Z,101023.05
2018-06-15T14:41:27.118Z,101025.91
2018-06-15T14:43:55.694Z,101032.17
2018-06-15T14:46:24.282Z,101032.31
2018-06-15T14:48:52.798Z,101028.05
2018-06-15T14:51:21.309Z,101037.09
2018-06-15T14:53:49.819Z,101032.00
2018-06-15T14:56:18.359Z,101034.39
2018-06-15T14:58:46.841Z,101041.05
2018-06-15T15:01:15.364Z,101040.65
2018-06-15T15:03:43.882Z,101038.30
2018-06-15T15:06:12.382Z,101045.95
2018-06-15T15:08:40.902Z,101050.12
2018-06-15T15:11:09.491Z,101043.80
2018-06-15T15:13:38.062Z,101037.25
2018-06-15T15:16:06.714Z,101042.75
2018-06-15T15:18:35.336Z,101039.20
2018-06-15T15:21:03.899Z,101055.27
2018-06-15T15:23:32.412Z,101045.08
2018-06-15T15:26:00.937Z,101036.06
2018-06-15T15:28:29.567Z,101050.29
2018-06-15T15:30:58.095Z,101047.98
2018-06-15T15:33:26.643Z,101045.81
2018-06-15T15:35:55.262Z,101039.20
2018-06-15T15:38:23.919Z,101039.97
2018-06-15T15:40:52.493Z,101045.38
2018-06-15T15:43:21.125Z,101053.74
2018-06-15T15:45:49.812Z,101050.44
2018-06-15T15:48:18.386Z,101041.11
2018-06-15T15:50:47.114Z,101041.52
2018-06-15T15:53:15.765Z,101051.67
2018-06-15T15:55:44.502Z,101045.66
2018-06-15T15:58:13.137Z,101047.72
2018-06-15T16:00:41.719Z,101054.50
2018-06-15T16:03:10.310Z,101056.71
2018-06-15T16:05:38.885Z,101053.77
2018-06-15T16:08:07.563Z,101055.38
2018-06-15T16:10:36.351Z,101053.56
2018-06-15T16:13:04.843Z,101065.55
2018-06-15T16:15:33.338Z,101059.89
2018-06-15T16:18:01.927Z,101060.23
2018-06-15T16:20:30.497Z,101052.84
2018-06-15T16:22:59.007Z,101048.16
2018-06-15T16:25:27.616Z,101047.94
2018-06-15T16:27:56.232Z,101049.25
2018-06-15T16:30:24.824Z,101047.35
2018-06-15T16:32:53.387Z,101044.16
2018-06-15T16:35:22.086Z,101042.93
2018-06-15T16:37:50.843Z,101038.73
2018-06-15T16:40:19.350Z,101040.42
2018-06-15T16:42:47.852Z,101047.17
2018-06-15T16:45:16.331Z,101043.30
2018-06-15T16:47:44.996Z,101042.98
2018-06-15T16:50:13.585Z,101037.06
2018-06-15T16:52:42.162Z,101038.14
2018-06-15T16:55:10.745Z,101042.64
2018-06-15T16:57:39.300Z,101043.20
2018-06-15T17:00:12.046Z,101049.12
2018-06-15T17:02:43.152Z,101048.73
2018-06-15T17:05:12.678Z,101053.06
2018-06-15T17:07:41.362Z,101053.02
2018-06-15T17:10:11.239Z,101045.75
2018-06-15T17:12:40.005Z,101049.25
2018-06-15T17:15:09.239Z,101050.65
2018-06-15T17:17:37.783Z,101050.80
2018-06-15T17:20:06.348Z,101047.39
2018-06-15T17:22:34.924Z,101045.06
2018-06-15T17:25:03.510Z,101041.75
2018-06-15T17:27:32.306Z,101046.13
2018-06-15T17:30:01.202Z,101060.50
2018-06-15T17:32:29.936Z,101054.48
2018-06-15T17:34:58.701Z,101042.36
2018-06-15T17:37:27.188Z,101049.45
2018-06-15T17:39:56.910Z,101043.74
2018-06-15T17:42:25.518Z,101042.41
2018-06-15T17:44:54.281Z,101038.25
2018-06-15T17:47:23.479Z,101047.13
2018-06-15T17:49:52.776Z,101052.12
2018-06-15T17:52:21.962Z,101051.13
2018-06-15T17:54:51.263Z,101056.86
2018-06-15T17:57:19.887Z,101053.45
2018-06-15T17:59:49.331Z,101051.88
2018-06-15T18:02:17.874Z,101055.89
2018-06-15T18:04:46.531Z,101046.66
2018-06-15T18:07:16.138Z,101049.78
2018-06-15T18:09:44.820Z,101047.11
2018-06-15T18:12:13.509Z,101052.84
2018-06-15T18:14:42.497Z,101046.98
2018-06-15T18:17:11.095Z,101052.46
2018-06-15T18:19:39.767Z,101047.11
2018-06-15T18:22:08.350Z,101055.04
2018-06-15T18:24:36.932Z,101048.70
2018-06-15T18:27:05.725Z,101049.06
2018-06-15T18:29:35.541Z,101052.95
2018-06-15T18:32:04.221Z,101059.67
2018-06-15T18:34:32.903Z,101061.86
2018-06-15T18:37:01.432Z,101053.83
2018-06-15T18:39:30.682Z,101053.69
2018-06-15T18:41:59.350Z,101052.98
2018-06-15T18:44:27.995Z,101049.69
2018-06-15T18:46:57.559Z,101051.00
2018-06-15T18:49:26.154Z,101047.95
2018-06-15T18:51:55.551Z,101052.79
2018-06-15T18:54:24.647Z,101061.80
2018-06-15T18:56:53.290Z,101054.01
2018-06-15T18:59:21.905Z,101055.11
2018-06-15T19:01:52.125Z,101057.27
2018-06-15T19:04:21.575Z,101054.55
2018-06-15T19:06:50.829Z,101055.96
2018-06-15T19:09:19.566Z,101055.84
2018-06-15T19:11:48.196Z,101059.69
2018-06-15T19:14:16.886Z,101058.58
2018-06-15T19:16:45.958Z,101056.25
2018-06-15T19:19:14.627Z,101054.42
2018-06-15T19:21:43.252Z,101057.16
2018-06-15T19:24:11.872Z,101056.67
2018-06-15T19:26:40.481Z,101057.62
2018-06-15T19:29:09.075Z,101056.15
2018-06-15T19:31:37.675Z,101061.94
2018-06-15T19:34:06.372Z,101063.86
2018-06-15T19:36:34.951Z,101065.81
2018-06-15T19:39:04.076Z,101048.02
2018-06-15T19:41:32.702Z,101067.46
2018-06-15T19:44:01.700Z,101067.91
2018-06-15T19:46:30.366Z,101066.41
2018-06-15T19:49:01.061Z,101061.52
2018-06-15T19:51:29.562Z,101070.24
2018-06-15T19:53:58.265Z,101076.27
2018-06-15T19:56:27.534Z,101078.41
2018-06-15T19:58:56.198Z,101076.25
2018-06-15T20:01:24.874Z,101078.41
2018-06-15T20:03:53.456Z,101081.41
2018-06-15T20:06:21.953Z,101085.27
2018-06-15T20:08:51.266Z,101087.03
2018-06-15T20:11:19.921Z,101084.94
2018-06-15T20:13:48.455Z,101083.92
2018-06-15T20:16:17.075Z,101090.80
2018-06-15T20:18:45.671Z,101089.47
2018-06-15T20:21:14.969Z,101093.57
2018-06-15T20:23:44.526Z,101068.63
2018-06-15T20:26:13.159Z,101079.84
2018-06-15T20:28:41.685Z,101087.08
2018-06-15T20:31:10.244Z,101084.63
2018-06-15T20:33:38.907Z,101086.16
2018-06-15T20:36:07.507Z,101081.44
2018-06-15T20:38:36.996Z,101077.87
2018-06-15T20:41:05.687Z,101079.41
2018-06-15T20:43:34.185Z,101083.41
2018-06-15T20:46:02.845Z,101083.77
2018-06-15T20:48:31.377Z,101074.91
2018-06-15T20:51:00.014Z,101073.17
2018-06-15T20:53:28.598Z,101082.28
2018-06-15T20:55:58.002Z,101083.22
2018-06-15T20:58:27.643Z,101080.55
2018-06-15T21:00:56.197Z,101070.31
2018-06-15T21:03:24.871Z,101077.37
2018-06-15T21:05:53.454Z,101076.04
2018-06-15T21:08:22.651Z,101075.28
2018-06-15T21:10:51.142Z,101077.08
2018-06-15T21:13:19.717Z,101081.18
2018-06-15T21:15:48.342Z,101082.16
2018-06-15T21:18:17.014Z,101083.12
2018-06-15T21:20:45.582Z,101085.02
2018-06-15T21:23:14.133Z,101091.52
2018-06-15T21:25:42.731Z,101089.17
2018-06-15T21:28:11.417Z,101081.48
2018-06-15T21:30:39.952Z,101078.83
2018-06-15T21:33:08.521Z,101088.30
2018-06-15T21:35:37.764Z,101082.22
2018-06-15T21:38:06.482Z,101084.05
2018-06-15T21:40:35.303Z,101083.29
2018-06-15T21:43:04.539Z,101082.06
2018-06-15T21:45:33.136Z,101084.36
2018-06-15T21:48:01.821Z,101081.91
2018-06-15T21:50:30.665Z,101080.00
2018-06-15T21:52:59.362Z,101080.20
2018-06-15T21:55:27.897Z,101078.08
2018-06-15T21:57:56.562Z,101075.52
2018-06-15T22:00:26.216Z,101074.49
2018-06-15T22:02:54.750Z,101070.13
2018-06-15T22:05:23.442Z,101077.45
2018-06-15T22:07:52.064Z,101078.13
2018-06-15T22:10:20.740Z,101078.73
2018-06-15T22:12:49.393Z,101080.42
2018-06-15T22:15:18.182Z,101081.39
2018-06-15T22:17:46.842Z,101080.06
2018-06-15T22:20:15.451Z,101080.99
2018-06-15T22:22:43.988Z,101068.29
2018-06-15T22:25:12.718Z,101077.80
2018-06-15T22:27:41.398Z,101070.65
2018-06-15T22:30:10.626Z,101069.42
2018-06-15T22:32:39.210Z,101069.62
2018-06-15T22:35:07.865Z,101063.00
2018-06-15T22:37:36.398Z,101063.41
2018-06-15T22:40:05.638Z,101064.88
2018-06-15T22:42:35.162Z,101059.08
2018-06-15T22:45:03.834Z,101065.27
2018-06-15T22:47:32.450Z,101063.28
2018-06-15T22:50:01.106Z,101061.88
2018-06-15T22:52:29.699Z,101063.13
2018-06-15T22:54:58.340Z,101067.52
2018-06-15T22:57:26.910Z,101064.66
2018-06-15T22:59:55.536Z,101068.05
2018-06-15T23:02:24.069Z,101069.58
2018-06-15T23:04:52.574Z,101065.22
2018-06-15T23:07:21.125Z,101068.65
2018-06-15T23:09:49.765Z,101069.02
2018-06-15T23:12:18.396Z,101067.32
2018-06-15T23:14:47.077Z,101077.09
2018-06-15T23:17:15.617Z,101077.66
2018-06-15T23:19:44.242Z,101066.38
2018-06-15T23:22:12.781Z,101070.94
2018-06-15T23:24:41.386Z,101075.13
2018-06-15T23:27:10.051Z,101076.28
2018-06-15T23:29:38.633Z,101078.53
2018-06-15T23:32:08.036Z,101084.64
2018-06-15T23:34:37.382Z,101077.42
2018-06-15T23:37:06.071Z,101085.02
2018-06-15T23:39:34.676Z,101081.79
2018-06-15T23:42:03.289Z,101085.60
2018-06-15T23:44:31.818Z,101084.09
2018-06-15T23:47:01.211Z,101080.27
2018-06-15T23:49:29.958Z,101068.69
2018-06-15T23:51:58.657Z,101072.27
2018-06-15T23:54:27.342Z,101079.10
2018-06-15T23:56:56.016Z,101085.38
2018-06-15T23:59:25.058Z,101077.41
